Time;durP1;ratioP1;P1;durP2;ratioP2;P2;SDS_P1;SDS_P2;PMS_P1;PMS_P2;Temp;Humidity;BMP_temperature;BMP_pressure;BME280_temperature;BME280_humidity;BME280_pressure;Samples;Min_cycle;Max_cycle;Signal;HPM_P1;HPM_P2
2021/11/07 00:02:35;;;;;;;11.88;8.00;;;;;;;7.77;80.09;101115.40;1643786;87;21073;-78
2021/11/07 00:05:00;;;;;;;11.60;8.53;;;;;;;7.74;80.10;101107.67;1616103;88;21600;-78
2021/11/07 00:07:26;;;;;;;14.38;9.05;;;;;;;7.71;80.07;101102.51;1616749;88;21093;-78
2021/11/07 00:09:59;;;;;;;15.32;9.25;;;;;;;7.68;80.09;101107.64;1623700;87;20919;-78
2021/11/07 00:12:19;;;;;;;16.77;9.40;;;;;;;7.68;80.07;101115.36;1640383;87;20943;-78
2021/11/07 00:14:51;;;;;;;19.32;10.60;;;;;;;7.65;80.04;101116.22;1645958;87;20958;-78
2021/11/07 00:17:19;;;;;;;21.57;10.95;;;;;;;7.62;80.03;101109.77;1645975;87;20986;-78
2021/11/07 00:19:49;;;;;;;19.75;11.05;;;;;;;7.60;80.01;101101.17;1646615;87;20938;-78
2021/11/07 00:22:25;;;;;;;16.95;10.58;;;;;;;7.58;80.04;101092.17;1646151;87;20906;-78
2021/11/07 00:25:02;;;;;;;19.32;10.13;;;;;;;7.57;80.01;101098.16;1645712;87;20939;-78
2021/11/07 00:29:55;;;;;;;14.87;9.90;;;;;;;7.51;79.95;101094.28;1646761;86;21450;-78
2021/11/07 00:32:32;;;;;;;14.25;9.53;;;;;;;7.50;79.94;101080.13;1646420;86;20935;-78
2021/11/07 00:37:44;;;;;;;12.90;9.33;;;;;;;7.46;79.97;101065.09;1627626;87;20934;-78
2021/11/07 00:43:08;;;;;;;10.38;9.23;;;;;;;7.41;79.96;101059.07;1646680;87;20975;-78
2021/11/07 00:45:38;;;;;;;11.73;8.48;;;;;;;7.41;79.97;101064.64;1645913;87;20978;-78
2021/11/07 00:48:23;;;;;;;11.35;9.03;;;;;;;7.38;79.94;101052.62;1646101;87;20926;-78
2021/11/07 00:51:05;;;;;;;15.23;9.48;;;;;;;7.35;79.92;101050.47;1644098;87;21108;-78
2021/11/07 00:56:19;;;;;;;11.70;7.83;;;;;;;7.31;79.94;101040.16;1643870;87;21085;-78
2021/11/07 00:59:01;;;;;;;10.45;8.95;;;;;;;7.29;79.91;101028.15;1644103;87;21085;-78
2021/11/07 01:01:30;;;;;;;11.33;9.58;;;;;;;7.25;79.89;101020.02;1644420;86;21078;-78
2021/11/07 01:04:00;;;;;;;15.23;10.00;;;;;;;7.24;79.91;101020.45;1630218;86;21309;-78
2021/11/07 01:06:25;;;;;;;12.98;10.58;;;;;;;7.21;79.87;101010.14;1644000;87;21014;-78
2021/11/07 01:08:51;;;;;;;13.50;9.48;;;;;;;7.20;79.91;101015.28;1646578;87;20910;-78
2021/11/07 01:11:17;;;;;;;14.17;10.07;;;;;;;7.18;79.86;101006.70;1644740;87;21094;-78
2021/11/07 01:13:45;;;;;;;15.30;10.20;;;;;;;7.15;79.86;101000.26;1644600;87;21085;-78
2021/11/07 01:16:11;;;;;;;13.75;10.18;;;;;;;7.11;79.85;100994.25;1644845;86;21057;-78
2021/11/07 01:18:38;;;;;;;13.22;10.00;;;;;;;7.10;79.83;100991.66;1644586;86;21070;-78
2021/11/07 01:21:05;;;;;;;14.65;9.88;;;;;;;7.07;79.88;100983.52;1644162;86;21341;-78
2021/11/07 01:23:40;;;;;;;11.55;9.40;;;;;;;7.06;79.85;100974.51;1644778;86;21066;-78
2021/11/07 01:26:14;;;;;;;11.18;8.90;;;;;;;7.03;79.84;100979.20;1643759;86;21143;-78
2021/11/07 01:28:47;;;;;;;15.38;9.90;;;;;;;7.02;79.85;100978.78;1644390;86;21347;-78
2021/11/07 01:31:08;;;;;;;14.35;9.78;;;;;;;7.01;79.85;100972.34;1643267;87;21332;-78
2021/11/07 01:33:35;;;;;;;11.93;10.17;;;;;;;6.98;79.83;100966.76;1634864;86;21077;-78
2021/11/07 01:36:26;;;;;;;16.37;10.55;;;;;;;6.97;79.87;100963.75;1644952;86;21129;-78
2021/11/07 01:38:48;;;;;;;13.80;10.55;;;;;;;6.95;79.82;100962.46;1636521;87;21345;-78
2021/11/07 01:41:26;;;;;;;12.75;10.08;;;;;;;6.95;79.80;100962.89;1643799;87;21137;-78
2021/11/07 01:43:50;;;;;;;14.50;10.40;;;;;;;6.91;79.77;100945.30;1643880;87;21411;-78
2021/11/07 01:46:27;;;;;;;;;;;;;;;6.91;79.80;100947.02;1646991;87;21598;-78
2021/11/07 01:48:50;;;;;;;11.25;9.08;;;;;;;6.89;79.77;100939.30;1643024;87;20365;-78
2021/11/07 01:51:13;;;;;;;13.78;9.60;;;;;;;6.88;79.80;100933.72;1644158;87;21368;-78
2021/11/07 01:53:40;;;;;;;14.10;9.73;;;;;;;6.87;79.76;100926.01;1644331;86;21510;-77
2021/11/07 01:56:11;;;;;;;14.15;8.98;;;;;;;6.86;79.75;100928.14;1644467;86;21393;-78
2021/11/07 01:58:40;;;;;;;12.23;9.60;;;;;;;6.85;79.76;100925.14;1644455;86;21267;-78
2021/11/07 02:01:07;;;;;;;12.88;9.45;;;;;;;6.85;79.77;100918.29;1644498;86;21089;-78
2021/11/07 02:03:34;;;;;;;15.32;9.18;;;;;;;6.85;79.73;100920.00;1632503;86;21372;-78
2021/11/07 02:06:01;;;;;;;15.18;9.25;;;;;;;6.84;79.74;100913.14;1644705;86;21630;-78
2021/11/07 02:08:28;;;;;;;12.15;9.53;;;;;;;6.84;79.75;100909.29;1644880;87;21065;-78
2021/11/07 02:10:56;;;;;;;15.75;9.63;;;;;;;6.83;79.70;100908.43;1644048;86;21533;-78
2021/11/07 02:13:25;;;;;;;15.43;9.73;;;;;;;6.83;79.75;100898.58;1645057;87;21114;-78
2021/11/07 02:15:54;;;;;;;13.10;9.48;;;;;;;6.83;79.72;100895.58;1644344;86;20994;-78
2021/11/07 02:18:21;;;;;;;13.95;9.73;;;;;;;6.83;79.69;100886.58;1644286;87;21069;-78
2021/11/07 02:20:48;;;;;;;14.20;10.43;;;;;;;6.83;79.71;100888.30;1644679;87;21113;-78
2021/11/07 02:23:17;;;;;;;;;;;;;;;6.83;79.71;100884.02;1646985;86;21378;-78
2021/11/07 02:25:45;;;;;;;12.28;9.48;;;;;;;6.82;79.73;100879.72;1644725;87;20213;-78
2021/11/07 02:28:15;;;;;;;13.13;9.68;;;;;;;6.82;79.72;100886.15;1644913;86;21596;-78
2021/11/07 02:30:41;;;;;;;14.75;10.55;;;;;;;6.80;79.76;100872.44;1632864;87;21367;-78
2021/11/07 02:33:07;;;;;;;13.13;10.53;;;;;;;6.78;79.75;100872.86;1644843;86;20888;-78
2021/11/07 02:35:34;;;;;;;13.83;9.88;;;;;;;6.77;79.79;100861.28;1644616;86;20978;-79
2021/11/07 02:38:00;;;;;;;11.57;9.43;;;;;;;6.76;79.80;100855.28;1644596;87;21408;-78
2021/11/07 02:40:26;;;;;;;13.50;10.43;;;;;;;6.74;79.82;100850.60;1644756;86;21089;-78
2021/11/07 02:42:52;;;;;;;13.32;10.20;;;;;;;6.73;79.83;100841.59;1644739;87;21413;-78
2021/11/07 02:45:21;;;;;;;12.95;9.10;;;;;;;6.73;79.87;100849.31;1644651;87;21079;-78
2021/11/07 02:47:50;;;;;;;17.70;10.70;;;;;;;6.73;79.81;100833.89;1644544;86;21613;-78
2021/11/07 02:50:19;;;;;;;13.78;9.98;;;;;;;6.74;79.88;100836.47;1646534;86;20986;-78
2021/11/07 02:52:46;;;;;;;14.93;9.85;;;;;;;6.74;79.87;100830.47;1646605;86;20934;-78
2021/11/07 02:55:13;;;;;;;12.43;9.85;;;;;;;6.75;79.87;100821.91;1633931;86;20975;-78
2021/11/07 02:57:39;;;;;;;12.63;10.40;;;;;;;6.74;79.87;100812.05;1632270;86;20939;-78
2021/11/07 03:00:10;;;;;;;12.10;10.20;;;;;;;6.74;79.87;100807.34;1632261;87;20927;-78
2021/11/07 03:02:37;;;;;;;11.83;9.28;;;;;;;6.70;79.84;100809.04;1627722;86;20919;-78
2021/11/07 03:05:10;;;;;;;13.22;9.50;;;;;;;6.69;79.88;100812.89;1629835;87;20991;-78
2021/11/07 03:07:42;;;;;;;13.68;9.98;;;;;;;6.66;79.92;100809.03;1632094;86;20934;-78
2021/11/07 03:10:13;;;;;;;11.73;9.73;;;;;;;6.63;79.89;100810.73;1632005;87;20966;-78
2021/11/07 03:12:39;;;;;;;13.00;9.80;;;;;;;6.59;79.92;100809.43;1631876;86;20962;-78
2021/11/07 03:15:11;;;;;;;12.58;10.03;;;;;;;6.55;79.93;100803.42;1632203;87;20967;-78
2021/11/07 03:17:37;;;;;;;14.38;10.20;;;;;;;6.52;79.96;100790.57;1632192;86;20946;-78
2021/11/07 03:20:07;;;;;;;11.40;9.45;;;;;;;6.49;80.03;100779.42;1631942;87;20934;-78
2021/11/07 03:22:33;;;;;;;12.23;9.05;;;;;;;6.47;80.00;100770.43;1632004;87;20935;-78
2021/11/07 03:25:11;;;;;;;15.83;10.35;;;;;;;6.44;80.04;100762.72;1641401;87;20931;-78
2021/11/07 03:27:41;;;;;;;11.35;9.53;;;;;;;6.42;80.10;100760.99;1632178;86;21508;-78
2021/11/07 03:33:27;;;;;;;11.28;9.93;;;;;;;6.36;80.12;100746.84;1618523;87;20967;-78
2021/11/07 03:35:50;;;;;;;14.10;10.10;;;;;;;6.34;80.11;100742.98;1631923;86;21483;-78
2021/11/07 03:38:18;;;;;;;12.43;9.85;;;;;;;6.33;80.13;100745.55;1632053;87;20938;-78
2021/11/07 03:40:44;;;;;;;11.60;10.17;;;;;;;6.30;80.13;100743.83;1632104;86;20946;-78
2021/11/07 03:43:10;;;;;;;10.98;9.20;;;;;;;6.28;80.15;100736.13;1632224;86;20946;-78
2021/11/07 03:45:37;;;;;;;14.63;9.73;;;;;;;6.26;80.17;100737.83;1631963;87;20906;-78
2021/11/07 03:48:04;;;;;;;12.55;9.88;;;;;;;6.27;80.20;100742.53;1632049;86;20899;-78
2021/11/07 03:50:32;;;;;;;15.80;8.90;;;;;;;6.26;80.17;100743.39;1631912;86;20932;-78
2021/11/07 03:52:59;;;;;;;11.48;9.63;;;;;;;6.25;80.17;100730.97;1632168;87;20943;-78
2021/11/07 03:55:25;;;;;;;;;;;;;;;6.25;80.20;100728.83;1634258;86;20942;-78
2021/11/07 03:57:51;;;;;;;11.50;9.23;;;;;;;6.24;80.30;100725.41;1632233;86;20153;-78
2021/11/07 04:00:21;;;;;;;10.10;8.85;;;;;;;6.25;80.27;100724.55;1632012;87;20927;-78
2021/11/07 04:02:49;;;;;;;14.83;9.50;;;;;;;6.26;80.30;100722.84;1625544;87;20967;-78
2021/11/07 04:05:15;;;;;;;16.07;9.80;;;;;;;6.27;80.29;100727.12;1606079;89;20982;-78
2021/11/07 04:07:44;;;;;;;12.60;8.65;;;;;;;6.24;80.27;100708.72;1621180;87;20982;-78
2021/11/07 04:10:11;;;;;;;11.65;8.65;;;;;;;6.25;80.28;100707.01;1632225;87;20930;-78
2021/11/07 04:12:38;;;;;;;14.35;9.63;;;;;;;6.25;80.27;100710.86;1630882;86;20986;-78
2021/11/07 04:15:10;;;;;;;11.40;8.50;;;;;;;6.25;80.24;100713.42;1629855;86;21109;-78
2021/11/07 04:17:37;;;;;;;10.75;8.80;;;;;;;6.24;80.26;100708.72;1631487;87;21002;-78
2021/11/07 04:20:06;;;;;;;13.75;8.50;;;;;;;6.24;80.24;100699.73;1627450;87;21552;-78
2021/11/07 04:22:32;;;;;;;9.85;8.85;;;;;;;6.22;80.26;100701.47;1630821;86;21106;-78
2021/11/07 04:24:59;;;;;;;15.53;10.10;;;;;;;6.21;80.23;100689.91;1630179;86;21152;-78
2021/11/07 04:27:25;;;;;;;11.22;8.68;;;;;;;6.19;80.22;100680.06;1630339;86;21104;-78
2021/11/07 04:29:52;;;;;;;9.85;8.43;;;;;;;6.16;80.24;100662.94;1630388;86;21069;-78
2021/11/07 04:32:19;;;;;;;10.30;8.88;;;;;;;6.13;80.28;100662.93;1628503;87;21125;-78
2021/11/07 04:34:46;;;;;;;10.03;8.30;;;;;;;6.11;80.24;100656.93;1630541;87;21058;-78
2021/11/07 04:37:12;;;;;;;10.45;8.58;;;;;;;6.10;80.22;100665.91;1630014;86;21161;-78
2021/11/07 04:39:48;;;;;;;11.73;9.28;;;;;;;6.07;80.33;100654.35;1624192;87;21549;-78
2021/11/07 04:42:14;;;;;;;9.33;7.97;;;;;;;6.06;80.30;100648.36;1630210;86;21077;-78
2021/11/07 04:44:40;;;;;;;9.28;7.72;;;;;;;6.04;80.28;100636.38;1629908;86;21081;-78
2021/11/07 04:47:07;;;;;;;11.10;7.83;;;;;;;6.02;80.28;100631.23;1629660;86;20990;-78
2021/11/07 04:49:33;;;;;;;9.08;8.15;;;;;;;6.00;80.32;100632.94;1629836;87;21069;-78
2021/11/07 04:52:00;;;;;;;12.20;8.05;;;;;;;6.00;80.35;100628.23;1629770;86;20990;-78
2021/11/07 04:54:30;;;;;;;9.43;8.30;;;;;;;6.00;80.40;100610.27;1639494;86;21097;-78
2021/11/07 04:56:57;;;;;;;11.57;8.63;;;;;;;6.01;80.38;100610.70;1629351;87;21107;-78
2021/11/07 04:59:24;;;;;;;8.28;7.42;;;;;;;6.01;80.41;100615.83;1629792;86;21172;-78
2021/11/07 05:01:53;;;;;;;10.82;7.42;;;;;;;6.03;80.38;100608.99;1629650;87;21025;-78
2021/11/07 05:04:19;;;;;;;8.23;6.80;;;;;;;6.03;80.36;100602.58;1607007;86;21065;-78
2021/11/07 05:06:49;;;;;;;10.60;8.40;;;;;;;5.93;80.42;100590.14;1626722;87;21093;-78
2021/11/07 05:09:18;;;;;;;7.97;7.08;;;;;;;6.02;80.37;100603.43;1629995;86;21509;-78
2021/11/07 05:11:45;;;;;;;;;;;;;;;6.02;80.38;100590.59;1632508;86;21121;-78
2021/11/07 05:14:11;;;;;;;10.68;8.13;;;;;;;6.04;80.42;100582.47;1632035;86;24544;-78
2021/11/07 05:16:37;;;;;;;9.90;7.58;;;;;;;6.05;80.39;100571.35;1631301;87;20975;-78
2021/11/07 05:19:04;;;;;;;11.05;7.90;;;;;;;6.05;80.37;100568.36;1632237;86;20939;-78
2021/11/07 05:21:30;;;;;;;10.35;8.00;;;;;;;6.06;80.38;100558.95;1606020;86;20964;-78
2021/11/07 05:23:57;;;;;;;8.25;7.33;;;;;;;6.07;80.35;100558.09;1608943;87;21442;-78
2021/11/07 05:26:23;;;;;;;8.60;7.10;;;;;;;6.07;80.38;100556.81;1632079;87;21364;-78
2021/11/07 05:28:50;;;;;;;8.70;6.50;;;;;;;6.09;80.38;100553.39;1632077;86;20932;-78
2021/11/07 05:31:18;;;;;;;6.87;6.17;;;;;;;6.11;80.38;100552.97;1617753;86;20939;-78
2021/11/07 05:33:51;;;;;;;12.00;6.70;;;;;;;6.13;80.40;100556.82;1612797;87;21419;-78
2021/11/07 05:36:17;;;;;;;9.53;7.10;;;;;;;6.15;80.40;100558.53;1631973;86;20934;-78
2021/11/07 05:38:44;;;;;;;9.08;8.18;;;;;;;6.17;80.41;100551.69;1631859;87;25188;-78
2021/11/07 05:41:14;;;;;;;9.60;7.03;;;;;;;6.18;80.36;100555.11;1629861;87;21517;-78
2021/11/07 05:43:41;;;;;;;8.38;7.55;;;;;;;6.21;80.40;100555.12;1629673;87;21038;-77
2021/11/07 05:46:07;;;;;;;;;;;;;;;6.23;80.39;100545.28;1619498;86;21117;-77
2021/11/07 05:48:38;;;;;;;;;;;;;;;6.27;80.37;100544.81;1622085;87;20452;-77
2021/11/07 05:51:01;;;;;;;11.85;7.70;;;;;;;6.27;80.38;100534.12;1619823;87;20149;-77
2021/11/07 05:53:28;;;;;;;9.25;7.80;;;;;;;6.30;80.37;100535.41;1646626;86;21310;-77
2021/11/07 05:55:54;;;;;;;8.30;6.90;;;;;;;6.31;80.39;100526.84;1649036;85;21614;-77
2021/11/07 05:58:20;;;;;;;9.53;7.13;;;;;;;6.34;80.37;100522.14;1650716;85;21043;-78
2021/11/07 06:00:48;;;;;;;9.77;7.00;;;;;;;6.36;80.34;100506.73;1624119;87;21662;-78
2021/11/07 06:03:16;;;;;;;9.73;6.92;;;;;;;6.38;80.37;100508.87;1620462;87;21582;-78
2021/11/07 06:05:43;;;;;;;8.13;7.25;;;;;;;6.38;80.34;100505.88;1631908;85;21568;-78
2021/11/07 06:08:09;;;;;;;9.38;7.05;;;;;;;6.40;80.32;100499.02;1623904;87;21531;-78
2021/11/07 06:10:35;;;;;;;8.10;7.28;;;;;;;6.43;80.30;100501.59;1646756;87;21534;-78
2021/11/07 06:13:02;;;;;;;7.85;7.05;;;;;;;6.44;80.29;100496.88;1623999;88;21558;-78
2021/11/07 06:15:29;;;;;;;10.15;7.22;;;;;;;6.45;80.32;100481.04;1652500;86;21449;-78
2021/11/07 06:17:56;;;;;;;8.25;6.87;;;;;;;6.47;80.32;100480.61;1651746;85;28325;-78
2021/11/07 06:20:24;;;;;;;9.50;7.35;;;;;;;6.48;80.30;100472.05;1650515;85;21564;-78
2021/11/07 06:22:51;;;;;;;10.20;7.42;;;;;;;6.50;80.31;100473.76;1650456;85;21425;-79
2021/11/07 06:25:17;;;;;;;9.03;7.60;;;;;;;6.51;80.27;100469.05;1651114;86;21560;-79
2021/11/07 06:27:47;;;;;;;12.18;8.10;;;;;;;6.51;80.33;100462.62;1650292;85;21488;-78
2021/11/07 06:30:14;;;;;;;12.07;7.50;;;;;;;6.53;80.29;100459.62;1632849;85;22196;-79
2021/11/07 06:32:40;;;;;;;12.55;7.70;;;;;;;6.53;80.29;100453.20;1612590;88;21138;-78
2021/11/07 06:35:11;;;;;;;11.00;7.37;;;;;;;6.56;80.28;100467.33;1596687;88;21572;-78
2021/11/07 06:37:38;;;;;;;10.15;7.45;;;;;;;6.58;80.30;100467.32;1573865;89;21211;-78
2021/11/07 06:40:05;;;;;;;9.63;6.40;;;;;;;6.59;80.30;100466.03;1584741;89;21573;-78
2021/11/07 06:42:39;;;;;;;10.58;7.22;;;;;;;6.61;80.27;100473.31;1586318;88;21446;-78
2021/11/07 06:45:06;;;;;;;9.35;7.70;;;;;;;6.64;80.28;100472.02;1587275;88;20964;-78
2021/11/07 06:47:32;;;;;;;11.93;7.60;;;;;;;6.67;80.26;100470.30;1584534;88;21584;-78
2021/11/07 06:49:58;;;;;;;10.18;6.97;;;;;;;6.70;80.28;100460.87;1586211;88;21688;-78
2021/11/07 06:52:25;;;;;;;8.48;7.08;;;;;;;6.72;80.28;100463.01;1583054;88;21489;-79
2021/11/07 06:54:53;;;;;;;9.98;6.78;;;;;;;6.76;80.26;100458.72;1585784;88;21084;-79
2021/11/07 06:57:20;;;;;;;8.78;7.00;;;;;;;6.77;80.26;100449.69;1607442;88;20963;-79
2021/11/07 06:59:47;;;;;;;10.20;7.70;;;;;;;6.80;80.25;100438.54;1609551;88;20903;-79
2021/11/07 07:02:14;;;;;;;10.03;6.90;;;;;;;6.81;80.22;100427.40;1590121;88;20974;-79
2021/11/07 07:04:40;;;;;;;10.43;7.22;;;;;;;6.83;80.24;100425.25;1597788;88;21488;-79
2021/11/07 07:07:06;;;;;;;10.03;7.28;;;;;;;6.85;80.22;100436.81;1586399;88;21427;-79
2021/11/07 07:09:42;;;;;;;11.43;8.00;;;;;;;6.88;80.21;100427.37;1595625;88;21572;-79
2021/11/07 07:12:09;;;;;;;9.95;7.72;;;;;;;6.92;80.22;100432.92;1592418;88;21429;-79
2021/11/07 07:14:44;;;;;;;7.25;6.03;;;;;;;6.96;80.23;100424.77;1586571;88;20975;-79
2021/11/07 07:17:25;;;;;;;9.18;7.03;;;;;;;7.00;80.22;100421.33;1585226;88;21469;-79
2021/11/07 07:28:11;;;;;;;8.10;6.22;;;;;;;7.12;80.17;100410.13;1594765;88;20925;-78
2021/11/07 07:30:47;;;;;;;9.13;6.67;;;;;;;7.15;80.19;100404.98;1586565;88;21440;-79
2021/11/07 07:35:45;;;;;;;8.48;6.55;;;;;;;7.24;80.19;100403.20;1595276;88;20948;-79
2021/11/07 07:38:13;;;;;;;6.85;6.17;;;;;;;7.29;80.18;100404.00;1595675;88;20980;-79
2021/11/07 07:40:40;;;;;;;7.83;7.03;;;;;;;7.34;80.19;100394.97;1594256;88;21436;-79
2021/11/07 07:43:06;;;;;;;8.50;6.58;;;;;;;7.38;80.16;100391.95;1594050;88;21439;-79
2021/11/07 07:45:35;;;;;;;6.85;6.15;;;;;;;7.40;80.17;100383.80;1592035;88;21035;-79
2021/11/07 07:48:02;;;;;;;7.72;6.97;;;;;;;7.41;80.16;100382.92;1593234;88;21420;-79
2021/11/07 07:50:29;;;;;;;7.45;6.58;;;;;;;7.43;80.19;100377.34;1594328;88;20996;-79
2021/11/07 07:52:56;;;;;;;8.08;6.10;;;;;;;7.46;80.13;100381.18;1586133;88;21475;-79
2021/11/07 07:55:23;;;;;;;16.82;13.05;;;;;;;7.48;80.18;100372.59;1593712;88;21012;-78
2021/11/07 07:57:50;;;;;;;40.30;30.60;;;;;;;7.50;80.17;100368.28;1585685;88;20932;-78
2021/11/07 08:00:28;;;;;;;91.35;52.17;;;;;;;7.52;80.18;100368.27;1586879;88;20936;-77
2021/11/07 08:02:54;;;;;;;179.65;99.52;;;;;;;7.53;80.12;100352.83;1588142;88;21008;-80
2021/11/07 08:05:23;;;;;;;100.05;58.35;;;;;;;7.56;80.11;100359.23;1591207;88;20969;-79
2021/11/07 08:07:52;;;;;;;77.47;44.18;;;;;;;7.59;80.12;100355.78;1588641;88;20948;-79
2021/11/07 08:10:18;;;;;;;46.90;29.55;;;;;;;7.60;80.07;100353.62;1600006;88;20893;-79
2021/11/07 08:12:44;;;;;;;27.93;20.45;;;;;;;7.64;80.12;100357.89;1584113;88;20956;-79
2021/11/07 08:15:13;;;;;;;;;;;;;;;7.68;80.10;100355.71;1588155;88;20942;-79
2021/11/07 08:17:40;;;;;;;14.80;11.70;;;;;;;7.72;80.02;100355.25;1609439;88;20131;-79
2021/11/07 08:20:09;;;;;;;16.15;9.98;;;;;;;7.71;80.00;100355.69;1592005;88;21489;-79
2021/11/07 08:22:36;;;;;;;7.58;6.83;;;;;;;7.71;79.93;100353.55;1603281;88;20911;-79
2021/11/07 08:25:13;;;;;;;8.20;7.28;;;;;;;7.71;79.95;100357.41;1592004;88;20982;-79
2021/11/07 08:27:43;;;;;;;12.50;10.93;;;;;;;7.69;79.93;100350.98;1603457;88;20933;-80
2021/11/07 08:30:11;;;;;;;20.52;16.00;;;;;;;7.67;79.82;100346.28;1593157;88;20925;-80
2021/11/07 08:32:38;;;;;;;23.40;19.07;;;;;;;7.68;79.89;100337.70;1599999;88;20975;-79
2021/11/07 08:35:05;;;;;;;;;;;;;;;7.71;79.94;100339.39;1601304;88;21007;-79
2021/11/07 08:37:36;;;;;;;;;;;;;;;7.75;79.68;100339.35;1594984;88;20128;-79
2021/11/07 08:40:01;;;;;;;12.28;8.25;;;;;;;7.79;79.82;100342.31;1595005;88;20177;-79
2021/11/07 08:42:40;;;;;;;12.05;9.10;;;;;;;7.84;79.90;100335.81;1590507;88;20984;-79
2021/11/07 09:01:59;;;;;;;21.95;19.12;;;;;;;7.55;79.97;100329.66;1614118;88;20971;-78
2021/11/07 09:07:22;;;;;;;9.88;8.93;;;;;;;7.41;80.05;100336.20;1615197;87;20894;-78
2021/11/07 09:09:47;;;;;;;11.75;10.63;;;;;;;7.35;80.15;100331.09;1594550;88;20960;-78
2021/11/07 09:12:13;;;;;;;10.50;8.85;;;;;;;7.29;80.25;100331.14;1592431;87;21001;-78
2021/11/07 09:14:41;;;;;;;11.63;9.88;;;;;;;7.25;80.21;100321.34;1595569;88;20939;-77
2021/11/07 09:17:12;;;;;;;7.58;6.62;;;;;;;7.21;80.22;100329.08;1599807;88;20966;-77
2021/11/07 09:19:40;;;;;;;11.18;7.87;;;;;;;7.20;80.26;100329.52;1596043;88;20943;-77
2021/11/07 09:22:12;;;;;;;9.48;8.45;;;;;;;7.19;80.26;100328.23;1594190;88;20989;-77
2021/11/07 09:24:45;;;;;;;10.63;7.40;;;;;;;7.19;80.30;100330.38;1604407;87;20950;-77
2021/11/07 09:27:34;;;;;;;8.43;7.60;;;;;;;7.18;80.28;100324.81;1599829;88;21415;-74
2021/11/07 09:33:10;;;;;;;7.45;6.70;;;;;;;7.19;80.31;100320.09;1595800;88;20951;-78
2021/11/07 09:35:14;;;;;;;8.30;6.50;;;;;;;7.20;80.29;100317.94;1587870;88;21014;-79
2021/11/07 09:37:40;;;;;;;7.17;5.90;;;;;;;7.21;80.31;100316.23;1601556;88;20948;-79
2021/11/07 09:40:01;;;;;;;6.75;6.05;;;;;;;7.23;80.30;100311.93;1586408;89;21003;-79
2021/11/07 09:45:18;;;;;;;10.55;9.55;;;;;;;7.30;80.33;100296.41;1553213;90;21082;-79
2021/11/07 09:47:46;;;;;;;8.03;7.22;;;;;;;7.32;80.30;100304.11;1581968;88;21077;-76
2021/11/07 09:50:12;;;;;;;7.83;6.25;;;;;;;7.33;80.28;100297.25;1602730;88;21411;-78
2021/11/07 09:52:41;;;;;;;6.25;5.60;;;;;;;7.34;80.33;100296.39;1598690;88;20964;-78
2021/11/07 09:55:07;;;;;;;10.53;6.50;;;;;;;7.35;80.32;100291.23;1598762;88;20892;-81
2021/11/07 09:57:35;;;;;;;6.95;5.72;;;;;;;7.36;80.34;100287.80;1591951;88;20956;-80
2021/11/07 10:00:06;;;;;;;7.15;6.17;;;;;;;7.39;80.39;100283.05;1585380;88;21009;-81
2021/11/07 10:02:32;;;;;;;9.13;5.33;;;;;;;7.41;80.36;100291.61;1589564;88;20934;-81
2021/11/07 10:05:02;;;;;;;7.92;6.58;;;;;;;7.42;80.38;100285.17;1569812;90;20988;-81
2021/11/07 10:07:37;;;;;;;8.65;6.45;;;;;;;7.44;80.41;100275.72;1583450;88;21010;-80
2021/11/07 10:10:19;;;;;;;6.15;5.55;;;;;;;7.48;80.39;100272.69;1600738;88;20985;-83
2021/11/07 10:12:56;;;;;;;8.50;6.83;;;;;;;7.50;80.44;100273.09;1589229;88;20958;-82
2021/11/07 10:15:33;;;;;;;7.70;6.27;;;;;;;7.53;80.41;100271.78;1586837;88;20932;-79
2021/11/07 10:18:11;;;;;;;9.03;7.05;;;;;;;7.59;80.48;100256.72;1586138;88;21214;-81
2021/11/07 10:20:48;;;;;;;7.03;6.33;;;;;;;7.63;80.44;100242.96;1587458;88;21464;-79
2021/11/07 10:23:22;;;;;;;9.60;8.30;;;;;;;7.68;80.48;100247.63;1586910;88;21026;-77
2021/11/07 10:26:38;;;;;;;6.37;5.78;;;;;;;7.71;80.45;100238.59;1585295;88;20948;-79
2021/11/07 10:28:36;;;;;;;24.85;22.52;;;;;;;7.75;80.49;100247.98;1575213;88;21048;-73
2021/11/07 10:31:22;;;;;;;9.78;7.80;;;;;;;7.81;80.48;100247.03;1599282;88;20941;-73
2021/11/07 10:42:44;;;;;;;7.92;6.53;;;;;;;7.95;80.52;100238.73;1591831;88;21295;-79
2021/11/07 10:45:14;;;;;;;7.17;6.47;;;;;;;7.97;80.43;100243.43;1593852;88;20934;-77
2021/11/07 10:53:19;;;;;;;7.83;6.37;;;;;;;7.95;80.41;100246.45;1586428;88;20988;-79
2021/11/07 10:55:51;;;;;;;8.90;6.22;;;;;;;7.94;80.40;100248.61;1589821;88;21003;-79
2021/11/07 10:58:35;;;;;;;5.85;5.25;;;;;;;7.94;80.45;100238.31;1581912;88;21051;-79
2021/11/07 11:01:09;;;;;;;6.62;6.03;;;;;;;7.93;80.45;100239.19;1588359;88;21127;-79
2021/11/07 11:03:54;;;;;;;6.40;5.67;;;;;;;7.94;80.51;100235.73;1587896;88;21008;-79
2021/11/07 11:06:22;;;;;;;6.55;5.80;;;;;;;7.94;80.52;100241.74;1580715;88;21130;-79
2021/11/07 11:08:57;;;;;;;12.68;11.50;;;;;;;7.97;80.51;100236.99;1602945;88;21146;-78
2021/11/07 11:14:18;;;;;;;8.63;7.03;;;;;;;7.98;80.50;100218.95;1591546;88;21151;-78
2021/11/07 11:16:53;;;;;;;7.08;6.37;;;;;;;7.99;80.52;100219.80;1586832;88;21098;-78
2021/11/07 11:29:51;;;;;;;7.60;6.80;;;;;;;8.02;80.58;100197.88;1590740;88;21076;-78
2021/11/07 11:42:52;;;;;;;8.93;6.47;;;;;;;8.13;80.60;100173.29;1588734;88;20992;-78
2021/11/07 11:45:22;;;;;;;6.25;5.65;;;;;;;8.17;80.60;100172.37;1564780;88;40246;-78
2021/11/07 11:51:16;;;;;;;8.60;6.40;;;;;;;8.26;80.61;100156.37;1586435;88;20976;-78
2021/11/07 11:53:57;;;;;;;8.65;6.25;;;;;;;8.34;80.66;100150.25;1586519;88;20960;-78
2021/11/07 11:56:26;;;;;;;6.55;5.90;;;;;;;8.41;80.65;100159.60;1584944;88;21087;-78
2021/11/07 11:59:06;;;;;;;8.20;5.47;;;;;;;8.46;80.60;100153.51;1587444;88;21119;-78
2021/11/07 12:01:33;;;;;;;8.25;6.37;;;;;;;8.51;80.63;100152.16;1583880;88;21046;-78
2021/11/07 12:04:16;;;;;;;8.15;6.08;;;;;;;8.57;80.65;100155.48;1584787;88;21087;-78
2021/11/07 12:12:06;;;;;;;19.12;15.40;;;;;;;8.69;80.54;100145.87;1593851;88;21117;-78
2021/11/07 12:14:51;;;;;;;28.12;21.35;;;;;;;8.71;80.58;100150.56;1590250;88;21107;-78
2021/11/07 12:17:32;;;;;;;8.90;8.00;;;;;;;8.71;80.59;100150.13;1592730;88;21135;-78
2021/11/07 12:20:00;;;;;;;9.03;6.72;;;;;;;8.73;80.59;100151.39;1587544;88;21139;-78
2021/11/07 12:22:32;;;;;;;12.47;10.08;;;;;;;8.69;80.57;100147.16;1596906;88;21051;-78
2021/11/07 12:25:04;;;;;;;11.00;8.95;;;;;;;8.66;80.60;100150.63;1600521;88;21089;-78
2021/11/07 12:27:52;;;;;;;8.93;6.85;;;;;;;8.63;80.60;100141.66;1595399;88;21077;-78
2021/11/07 12:30:25;;;;;;;7.20;6.53;;;;;;;8.62;80.66;100138.67;1590721;88;25160;-80
2021/11/07 12:33:05;;;;;;;8.63;5.15;;;;;;;8.62;80.69;100135.66;1581445;88;21357;-79
2021/11/07 12:35:39;;;;;;;8.38;5.97;;;;;;;8.63;80.69;100143.80;1587645;88;21647;-78
2021/11/07 12:41:16;;;;;;;8.18;7.47;;;;;;;8.63;80.69;100130.91;1589674;88;21143;-78
2021/11/07 12:44:02;;;;;;;9.48;5.58;;;;;;;8.63;80.70;100136.06;1594543;88;21016;-78
2021/11/07 12:46:46;;;;;;;6.92;5.62;;;;;;;8.67;80.73;100143.31;1593257;88;20952;-78
2021/11/07 12:49:28;;;;;;;7.45;6.75;;;;;;;8.68;80.71;100139.02;1586632;88;21038;-78
2021/11/07 12:52:08;;;;;;;7.37;4.60;;;;;;;8.66;80.73;100139.03;1590649;88;20924;-78
2021/11/07 12:54:43;;;;;;;7.08;5.10;;;;;;;8.66;80.74;100136.89;1590723;88;20991;-78
2021/11/07 12:57:22;;;;;;;9.30;8.40;;;;;;;8.64;80.72;100131.77;1585847;88;20956;-78
2021/11/07 12:59:58;;;;;;;7.22;5.83;;;;;;;8.62;80.78;100129.65;1593297;88;21368;-78
2021/11/07 13:02:33;;;;;;;6.30;5.58;;;;;;;8.62;80.83;100124.49;1585369;88;20984;-78
2021/11/07 13:05:28;;;;;;;7.20;5.50;;;;;;;8.61;80.84;100123.64;1590928;88;20993;-78
2021/11/07 13:10:34;;;;;;;6.65;5.70;;;;;;;8.62;80.92;100128.36;1606070;87;21430;-78
2021/11/07 13:13:09;;;;;;;6.25;4.95;;;;;;;8.63;80.91;100130.06;1587849;88;21280;-78
2021/11/07 13:21:17;;;;;;;11.65;6.87;;;;;;;8.67;80.95;100138.59;1590707;88;20979;-78
2021/11/07 13:24:04;;;;;;;6.72;5.30;;;;;;;8.69;80.94;100134.27;1635699;86;20922;-78
2021/11/07 13:26:48;;;;;;;5.60;5.10;;;;;;;8.68;80.93;100136.00;1631751;86;20969;-78
2021/11/07 13:34:33;;;;;;;8.88;4.85;;;;;;;8.72;80.90;100135.52;1635734;86;21360;-78
2021/11/07 13:37:03;;;;;;;6.28;4.78;;;;;;;8.73;80.91;100130.33;1636558;86;20916;-78